createdAt,value
2023-03-12T00:00:15.584Z,3.50
2023-03-12T00:02:43.501Z,5.77
2023-03-12T00:05:12.000Z,4.77
2023-03-12T00:07:41.187Z,5.67
2023-03-12T00:10:10.236Z,6.80
2023-03-12T00:12:38.092Z,5.00
2023-03-12T00:15:07.195Z,8.10
2023-03-12T00:17:35.036Z,4.87
2023-03-12T00:20:03.614Z,4.93
2023-03-12T00:22:31.490Z,4.40
2023-03-12T00:25:00.787Z,4.23
2023-03-12T00:27:30.434Z,4.13
2023-03-12T00:29:58.239Z,6.77
2023-03-12T00:32:26.287Z,4.43
2023-03-12T00:34:55.816Z,4.73
2023-03-12T00:37:23.802Z,6.03
2023-03-12T00:39:51.884Z,2.73
2023-03-12T00:42:21.334Z,4.33
2023-03-12T00:44:49.182Z,6.43
2023-03-12T00:47:17.032Z,7.20
2023-03-12T00:49:44.874Z,7.00
2023-03-12T00:52:12.856Z,4.97
2023-03-12T00:54:41.052Z,8.13
2023-03-12T00:57:08.813Z,4.63
2023-03-12T00:59:40.465Z,8.13
2023-03-12T01:02:08.890Z,5.40
2023-03-12T01:04:36.828Z,5.27
2023-03-12T01:07:04.760Z,5.27
2023-03-12T01:09:32.542Z,4.40
2023-03-12T01:12:00.420Z,6.03
2023-03-12T01:14:28.250Z,5.67
2023-03-12T01:16:57.413Z,4.40
2023-03-12T01:19:25.339Z,5.63
2023-03-12T01:21:53.204Z,3.70
2023-03-12T01:24:21.082Z,6.23
2023-03-12T01:26:48.919Z,4.27
2023-03-12T01:29:16.770Z,3.93
2023-03-12T01:31:44.650Z,4.13
2023-03-12T01:34:13.821Z,6.90
2023-03-12T01:36:42.358Z,4.23
2023-03-12T01:39:10.222Z,5.73
2023-03-12T01:41:38.034Z,5.53
2023-03-12T01:44:06.456Z,5.70
2023-03-12T01:46:35.608Z,5.27
2023-03-12T01:49:09.014Z,3.37
2023-03-12T01:51:41.983Z,4.87
2023-03-12T01:54:13.853Z,6.67
2023-03-12T01:56:42.562Z,5.60
2023-03-12T01:59:16.751Z,6.10
2023-03-12T02:01:45.597Z,4.47
2023-03-12T02:04:15.782Z,5.80
2023-03-12T02:06:50.306Z,3.60
2023-03-12T02:09:20.536Z,4.00
2023-03-12T02:11:48.704Z,7.43
2023-03-12T02:14:16.636Z,2.60
2023-03-12T02:16:45.725Z,4.67
2023-03-12T02:19:20.008Z,3.67
2023-03-12T02:21:49.259Z,5.70
2023-03-12T02:24:27.090Z,6.77
2023-03-12T02:26:57.121Z,4.47
2023-03-12T02:29:25.715Z,3.53
2023-03-12T02:31:57.030Z,3.90
2023-03-12T02:34:24.953Z,4.27
2023-03-12T02:36:52.769Z,7.07
2023-03-12T02:39:20.641Z,5.80
2023-03-12T02:41:53.605Z,5.33
2023-03-12T02:44:25.091Z,6.87
2023-03-12T02:46:54.871Z,5.87
2023-03-12T02:49:25.282Z,5.27
2023-03-12T02:51:53.639Z,6.50
2023-03-12T02:54:23.100Z,4.90
2023-03-12T02:56:52.270Z,4.47
2023-03-12T02:59:22.496Z,5.97
2023-03-12T03:01:54.402Z,5.50
2023-03-12T03:04:22.831Z,5.73
2023-03-12T03:06:51.279Z,6.10
2023-03-12T03:09:19.457Z,4.07
2023-03-12T03:11:47.306Z,6.07
2023-03-12T03:14:15.381Z,4.13
2023-03-12T03:16:44.750Z,2.80
2023-03-12T03:19:14.533Z,5.33
2023-03-12T03:21:43.879Z,4.13
2023-03-12T03:24:12.697Z,2.80
2023-03-12T03:26:40.725Z,4.40
2023-03-12T03:29:08.675Z,4.13
2023-03-12T03:31:36.409Z,5.20
2023-03-12T03:34:05.657Z,5.47
2023-03-12T03:36:33.456Z,7.83
2023-03-12T03:39:01.308Z,3.50
2023-03-12T03:41:29.087Z,6.63
2023-03-12T03:43:59.008Z,5.77
2023-03-12T03:46:27.475Z,5.47
2023-03-12T03:48:55.298Z,5.53
2023-03-12T03:51:24.633Z,4.13
2023-03-12T03:53:52.396Z,9.37
2023-03-12T03:56:20.889Z,7.80
2023-03-12T03:58:48.622Z,7.30
2023-03-12T04:01:17.016Z,4.80
2023-03-12T04:03:44.906Z,3.80
2023-03-12T04:06:13.200Z,5.87
2023-03-12T04:08:42.417Z,4.70
2023-03-12T04:11:12.533Z,3.93
2023-03-12T04:13:40.756Z,3.47
2023-03-12T04:16:09.528Z,6.27
2023-03-12T04:18:38.702Z,3.30
2023-03-12T04:21:08.386Z,5.20
2023-03-12T04:23:38.215Z,6.83
2023-03-12T04:26:08.658Z,5.30
2023-03-12T04:28:37.337Z,5.10
2023-03-12T04:31:07.600Z,5.93
2023-03-12T04:33:37.145Z,3.90
2023-03-12T04:36:05.509Z,7.60
2023-03-12T04:38:33.300Z,8.50
2023-03-12T04:41:02.451Z,6.03
2023-03-12T04:43:32.641Z,5.33
2023-03-12T04:46:00.720Z,4.17
2023-03-12T04:48:28.836Z,6.83
2023-03-12T04:50:56.691Z,6.07
2023-03-12T04:53:25.566Z,7.27
2023-03-12T04:55:53.678Z,5.00
2023-03-12T04:58:22.137Z,5.87
2023-03-12T05:00:51.852Z,4.10
2023-03-12T05:03:20.146Z,5.20
2023-03-12T05:05:47.943Z,5.93
2023-03-12T05:08:15.779Z,6.17
2023-03-12T05:10:45.423Z,10.10
2023-03-12T05:13:16.946Z,7.67
2023-03-12T05:15:45.152Z,5.33
2023-03-12T05:18:14.788Z,7.50
2023-03-12T05:20:42.653Z,5.37
2023-03-12T05:23:10.685Z,5.83
2023-03-12T05:25:40.461Z,4.83
2023-03-12T05:28:08.417Z,3.77
2023-03-12T05:30:36.318Z,5.17
2023-03-12T05:33:04.415Z,6.03
2023-03-12T05:35:34.010Z,5.43
2023-03-12T05:38:01.907Z,9.30
2023-03-12T05:40:29.764Z,3.87
2023-03-12T05:42:57.553Z,5.57
2023-03-12T05:45:25.560Z,6.87
2023-03-12T05:47:53.619Z,4.73
2023-03-12T05:50:21.740Z,6.00
2023-03-12T05:52:51.175Z,5.33
2023-03-12T05:55:19.679Z,3.73
2023-03-12T05:57:47.515Z,4.70
2023-03-12T06:00:16.657Z,4.20
2023-03-12T06:02:44.852Z,5.03
2023-03-12T06:05:13.324Z,4.63
2023-03-12T06:07:41.166Z,4.73
2023-03-12T06:10:12.008Z,5.30
2023-03-12T06:12:39.945Z,5.03
2023-03-12T06:15:08.676Z,5.80
2023-03-12T06:17:36.461Z,5.90
2023-03-12T06:20:04.728Z,6.10
2023-03-12T06:22:32.476Z,6.83
2023-03-12T06:25:00.306Z,6.30
2023-03-12T06:27:29.516Z,6.43
2023-03-12T06:29:58.580Z,5.20
2023-03-12T06:32:27.133Z,7.13
2023-03-12T06:34:55.008Z,5.80
2023-03-12T06:37:22.750Z,4.47
2023-03-12T06:39:50.541Z,5.33
2023-03-12T06:42:19.740Z,6.97
2023-03-12T06:44:48.959Z,7.60
2023-03-12T06:47:17.762Z,7.10
2023-03-12T06:49:45.804Z,8.03
2023-03-12T06:52:13.604Z,7.63
2023-03-12T06:54:41.404Z,9.90
2023-03-12T06:57:09.489Z,8.17
2023-03-12T06:59:37.307Z,9.33
2023-03-12T07:02:06.781Z,7.97
2023-03-12T07:04:34.612Z,8.97
2023-03-12T07:07:02.376Z,8.50
2023-03-12T07:09:30.215Z,9.37
2023-03-12T07:11:57.961Z,8.90
2023-03-12T07:14:25.861Z,10.63
2023-03-12T07:16:53.690Z,10.27
2023-03-12T07:19:22.865Z,13.23
2023-03-12T07:21:50.617Z,12.90
2023-03-12T07:24:18.418Z,14.73
2023-03-12T07:26:46.262Z,13.40
2023-03-12T07:29:14.068Z,12.03
2023-03-12T07:31:41.853Z,14.70
2023-03-12T07:34:09.805Z,16.90
2023-03-12T07:36:39.149Z,14.67
2023-03-12T07:39:06.998Z,17.87
2023-03-12T07:41:37.335Z,14.70
2023-03-12T07:44:05.323Z,15.40
2023-03-12T07:46:33.717Z,13.87
2023-03-12T07:49:01.963Z,18.23
2023-03-12T07:51:29.765Z,15.47
2023-03-12T07:53:59.093Z,14.43
2023-03-12T07:56:27.012Z,17.40
2023-03-12T07:58:55.477Z,19.33
2023-03-12T08:01:25.386Z,21.17
2023-03-12T08:03:53.289Z,16.67
2023-03-12T08:06:21.834Z,18.67
2023-03-12T08:08:49.695Z,23.00
2023-03-12T08:11:18.890Z,18.77
2023-03-12T08:13:46.699Z,18.33
2023-03-12T08:16:14.762Z,18.60
2023-03-12T08:18:43.668Z,17.47
2023-03-12T08:21:11.540Z,18.17
2023-03-12T08:23:39.394Z,15.27
2023-03-12T08:26:07.234Z,16.97
2023-03-12T08:28:36.481Z,15.97
2023-03-12T08:31:04.325Z,12.90
2023-03-12T08:33:32.332Z,16.83
2023-03-12T08:36:00.193Z,15.07
2023-03-12T08:38:28.280Z,13.53
2023-03-12T08:40:57.940Z,12.73
2023-03-12T08:43:26.644Z,11.23
2023-03-12T08:45:57.663Z,15.10
2023-03-12T08:48:25.794Z,9.00
2023-03-12T08:50:56.250Z,12.10
2023-03-12T08:53:24.094Z,9.13
2023-03-12T08:55:54.218Z,8.53
2023-03-12T08:58:23.220Z,8.87
2023-03-12T09:00:51.006Z,11.00
2023-03-12T09:03:21.599Z,9.77
2023-03-12T09:05:50.843Z,8.77
2023-03-12T09:08:19.179Z,8.20
2023-03-12T09:10:50.274Z,10.67
2023-03-12T09:13:18.142Z,10.93
2023-03-12T09:15:45.969Z,7.93
2023-03-12T09:18:13.782Z,8.10
2023-03-12T09:20:44.015Z,9.87
2023-03-12T09:23:11.889Z,9.03
2023-03-12T09:25:39.731Z,17.00
2023-03-12T09:28:07.399Z,12.87
2023-03-12T09:30:35.102Z,10.30
2023-03-12T09:33:03.149Z,11.07
2023-03-12T09:35:31.587Z,13.37
2023-03-12T09:38:01.448Z,11.00
2023-03-12T09:40:31.941Z,15.40
2023-03-12T09:43:01.409Z,5.70
2023-03-12T09:45:32.153Z,12.77
2023-03-12T09:48:02.773Z,14.50
2023-03-12T09:50:33.428Z,11.77
2023-03-12T09:53:05.830Z,12.90
2023-03-12T09:55:38.250Z,11.73
2023-03-12T09:58:11.643Z,17.13
2023-03-12T10:00:39.485Z,15.97
2023-03-12T10:03:41.943Z,11.97
2023-03-12T10:06:13.809Z,12.13
2023-03-12T10:08:55.806Z,12.83
2023-03-12T10:11:43.680Z,12.40
2023-03-12T10:14:28.945Z,12.13
2023-03-12T10:17:07.790Z,7.53
2023-03-12T10:19:48.648Z,20.50
2023-03-12T10:22:29.047Z,14.00
2023-03-12T10:25:05.173Z,19.90
2023-03-12T10:27:37.075Z,10.50
2023-03-12T10:30:17.775Z,12.33
2023-03-12T10:32:50.504Z,8.53
2023-03-12T10:35:22.064Z,15.43
2023-03-12T10:37:52.476Z,14.43
2023-03-12T10:40:23.786Z,10.93
2023-03-12T10:42:52.363Z,11.43
2023-03-12T10:45:30.847Z,17.50
2023-03-12T10:48:02.898Z,12.03
2023-03-12T10:50:32.715Z,11.17
2023-03-12T10:53:22.654Z,10.37
2023-03-12T10:56:03.052Z,19.87
2023-03-12T10:58:36.911Z,9.03
2023-03-12T11:01:07.182Z,14.93
2023-03-12T11:03:35.260Z,12.33
2023-03-12T11:06:05.733Z,11.33
2023-03-12T11:08:36.331Z,11.57
2023-03-12T11:11:06.795Z,18.10
2023-03-12T11:13:35.985Z,15.47
2023-03-12T11:16:22.994Z,15.57
2023-03-12T11:18:57.541Z,19.77
2023-03-12T11:21:25.720Z,19.50
2023-03-12T11:24:09.158Z,16.67
2023-03-12T11:26:49.411Z,12.30
2023-03-12T11:29:25.322Z,24.07
2023-03-12T11:32:02.349Z,17.57
2023-03-12T11:34:32.584Z,12.77
2023-03-12T11:37:08.883Z,18.33
2023-03-12T11:39:48.672Z,20.40
2023-03-12T11:42:28.445Z,17.23
2023-03-12T11:45:06.231Z,14.63
2023-03-12T11:47:48.358Z,19.00
2023-03-12T11:50:27.083Z,13.47
2023-03-12T11:53:31.910Z,17.37
2023-03-12T11:56:14.098Z,15.07
2023-03-12T11:59:17.642Z,12.63
2023-03-12T12:01:59.285Z,17.90
2023-03-12T12:04:55.758Z,18.73
2023-03-12T12:07:40.486Z,20.33
2023-03-12T12:10:18.285Z,14.60
2023-03-12T12:12:57.416Z,13.03
2023-03-12T12:15:38.983Z,16.00
2023-03-12T12:18:23.863Z,16.50
2023-03-12T12:20:58.002Z,14.43
2023-03-12T12:23:36.568Z,12.03
2023-03-12T12:26:08.429Z,13.40
2023-03-12T12:28:55.218Z,22.23
2023-03-12T12:31:31.620Z,20.10
2023-03-12T12:34:43.721Z,15.37
2023-03-12T12:37:26.563Z,18.30
2023-03-12T12:40:08.670Z,19.03
2023-03-12T12:42:49.611Z,11.90
2023-03-12T12:45:18.671Z,15.97
2023-03-12T12:47:51.958Z,20.73
2023-03-12T12:50:23.411Z,13.43
2023-03-12T12:52:55.911Z,22.30
2023-03-12T12:55:29.394Z,19.90
2023-03-12T12:58:01.674Z,13.17
2023-03-12T13:00:44.124Z,20.30
2023-03-12T13:03:17.649Z,14.13
2023-03-12T13:05:55.747Z,25.23
2023-03-12T13:08:58.043Z,18.07
2023-03-12T13:11:29.929Z,16.23
2023-03-12T13:14:20.625Z,19.97
2023-03-12T13:16:49.623Z,20.00
2023-03-12T13:19:28.139Z,15.67
2023-03-12T13:22:10.099Z,15.03
2023-03-12T13:24:48.065Z,19.07
2023-03-12T13:27:20.535Z,17.20
2023-03-12T13:29:55.147Z,16.17
2023-03-12T13:33:06.203Z,17.13
2023-03-12T13:35:38.134Z,14.93
2023-03-12T13:38:08.594Z,9.50
2023-03-12T13:40:54.321Z,19.50
2023-03-12T13:43:54.498Z,18.03
2023-03-12T13:46:30.858Z,14.40
2023-03-12T13:49:04.376Z,16.97
2023-03-12T13:51:33.870Z,20.33
2023-03-12T13:54:03.822Z,16.67
2023-03-12T13:56:34.468Z,19.60
2023-03-12T13:59:05.879Z,18.70
2023-03-12T14:01:40.265Z,19.57
2023-03-12T14:04:14.482Z,19.50
2023-03-12T14:07:02.898Z,19.90
2023-03-12T14:09:40.648Z,15.00
2023-03-12T14:12:15.379Z,19.10
2023-03-12T14:15:04.281Z,13.77
2023-03-12T14:17:34.506Z,22.30
2023-03-12T14:20:07.128Z,15.57
2023-03-12T14:22:39.162Z,17.90
2023-03-12T14:25:15.214Z,19.03
2023-03-12T14:27:48.260Z,18.17
2023-03-12T14:30:23.571Z,17.73
2023-03-12T14:32:56.287Z,13.87
2023-03-12T14:35:28.376Z,21.80
2023-03-12T14:38:02.447Z,21.90
2023-03-12T14:40:39.387Z,23.37
2023-03-12T14:43:21.924Z,20.47
2023-03-12T14:45:52.921Z,15.30
2023-03-12T14:48:25.064Z,19.30
2023-03-12T14:50:52.874Z,17.20
2023-03-12T14:53:25.621Z,24.87
2023-03-12T14:56:05.012Z,16.30
2023-03-12T14:58:33.562Z,18.00
2023-03-12T15:01:03.270Z,19.00
2023-03-12T15:03:35.248Z,27.37
2023-03-12T15:06:02.992Z,19.20
2023-03-12T15:08:35.866Z,15.40
2023-03-12T15:11:03.937Z,15.57
2023-03-12T15:13:32.012Z,23.73
2023-03-12T15:16:00.074Z,22.27
2023-03-12T15:18:30.755Z,21.70
2023-03-12T15:21:00.606Z,16.60
2023-03-12T15:23:31.861Z,26.80
2023-03-12T15:26:16.751Z,18.90
2023-03-12T15:28:45.074Z,15.37
2023-03-12T15:31:15.544Z,17.87
2023-03-12T15:33:45.477Z,14.20
2023-03-12T15:36:29.033Z,19.03
2023-03-12T15:39:01.097Z,20.77
2023-03-12T15:41:41.294Z,20.57
2023-03-12T15:44:19.143Z,20.00
2023-03-12T15:46:48.885Z,17.60
2023-03-12T15:49:26.364Z,24.73
2023-03-12T15:52:03.445Z,19.30
2023-03-12T15:54:40.582Z,21.77
2023-03-12T15:57:23.575Z,20.17
2023-03-12T16:00:07.190Z,22.23
2023-03-12T16:02:40.055Z,17.93
2023-03-12T16:05:08.557Z,18.63
2023-03-12T16:07:36.394Z,24.07
2023-03-12T16:10:04.394Z,20.77
2023-03-12T16:12:33.809Z,22.57
2023-03-12T16:15:01.634Z,20.80
2023-03-12T16:17:30.673Z,20.90
2023-03-12T16:19:58.613Z,16.97
2023-03-12T16:22:26.379Z,25.70
2023-03-12T16:24:54.166Z,29.90
2023-03-12T16:27:31.950Z,22.57
2023-03-12T16:30:02.893Z,17.10
2023-03-12T16:32:30.761Z,21.97
2023-03-12T16:34:58.858Z,23.03
2023-03-12T16:37:26.711Z,17.23
2023-03-12T16:39:54.495Z,17.27
2023-03-12T16:42:22.719Z,15.73
2023-03-12T16:44:50.535Z,18.90
2023-03-12T16:47:19.888Z,12.03
2023-03-12T16:49:47.629Z,14.47
2023-03-12T16:52:18.323Z,7.83
2023-03-12T16:54:46.206Z,14.33
2023-03-12T16:57:23.357Z,11.97
2023-03-12T16:59:51.407Z,15.27
2023-03-12T17:02:21.629Z,11.70
2023-03-12T17:04:51.101Z,14.67
2023-03-12T17:07:19.015Z,8.30
2023-03-12T17:09:46.800Z,9.33
2023-03-12T17:12:22.901Z,9.80
2023-03-12T17:14:51.706Z,5.33
2023-03-12T17:17:23.125Z,15.40
2023-03-12T17:19:52.075Z,5.27
2023-03-12T17:22:21.298Z,5.40
2023-03-12T17:24:49.088Z,7.07
2023-03-12T17:27:16.932Z,3.63
2023-03-12T17:29:44.754Z,8.63
2023-03-12T17:32:12.564Z,7.43
2023-03-12T17:34:41.749Z,5.53
2023-03-12T17:37:09.610Z,10.13
2023-03-12T17:39:37.412Z,8.60
2023-03-12T17:42:05.426Z,10.93
2023-03-12T17:44:34.773Z,9.87
2023-03-12T17:47:03.191Z,12.43
2023-03-12T17:49:31.339Z,8.77
2023-03-12T17:52:03.302Z,8.30
2023-03-12T17:54:31.240Z,9.47
2023-03-12T17:56:59.122Z,9.87
2023-03-12T17:59:26.996Z,13.13
2023-03-12T18:01:54.776Z,8.23
2023-03-12T18:04:22.599Z,7.63
2023-03-12T18:06:50.365Z,16.67
2023-03-12T18:09:19.571Z,11.93
2023-03-12T18:11:48.217Z,9.17
2023-03-12T18:14:16.239Z,5.70
2023-03-12T18:16:44.031Z,9.07
2023-03-12T18:19:11.851Z,10.50
2023-03-12T18:21:40.015Z,6.77
2023-03-12T18:24:14.116Z,8.07
2023-03-12T18:26:45.229Z,10.90
2023-03-12T18:29:13.078Z,7.10
2023-03-12T18:31:41.055Z,10.10
2023-03-12T18:34:08.986Z,9.80
2023-03-12T18:36:36.787Z,8.83
2023-03-12T18:39:06.252Z,11.40
2023-03-12T18:41:34.151Z,11.73
2023-03-12T18:44:03.405Z,11.07
2023-03-12T18:46:32.384Z,9.93
2023-03-12T18:49:05.000Z,7.60
2023-03-12T18:51:33.078Z,13.67
2023-03-12T18:54:01.093Z,12.10
2023-03-12T18:56:28.936Z,10.83
2023-03-12T18:58:57.028Z,7.40
2023-03-12T19:01:26.331Z,10.90
2023-03-12T19:03:54.169Z,12.93
2023-03-12T19:06:22.150Z,9.97
2023-03-12T19:08:49.926Z,8.97
2023-03-12T19:11:18.034Z,11.97
2023-03-12T19:13:49.475Z,12.03
2023-03-12T19:16:21.650Z,9.53
2023-03-12T19:18:51.709Z,6.87
2023-03-12T19:21:19.839Z,15.67
2023-03-12T19:23:47.653Z,11.67
2023-03-12T19:26:15.695Z,14.27
2023-03-12T19:28:43.875Z,8.23
2023-03-12T19:31:15.204Z,14.40
2023-03-12T19:33:43.990Z,10.30
2023-03-12T19:36:13.244Z,13.87
2023-03-12T19:38:41.328Z,19.47
2023-03-12T19:41:09.960Z,15.03
2023-03-12T19:43:38.365Z,7.57
2023-03-12T19:46:06.560Z,12.10
2023-03-12T19:48:34.715Z,10.37
2023-03-12T19:51:06.521Z,13.33
2023-03-12T19:53:35.828Z,11.23
2023-03-12T19:56:04.099Z,19.20
2023-03-12T19:58:32.002Z,15.00
2023-03-12T20:01:00.575Z,11.50
2023-03-12T20:03:28.678Z,6.70
2023-03-12T20:05:57.004Z,10.03
2023-03-12T20:08:27.953Z,11.37
2023-03-12T20:11:02.843Z,12.23
2023-03-12T20:13:30.937Z,11.67
2023-03-12T20:16:18.984Z,12.97
2023-03-12T20:18:47.084Z,14.90
2023-03-12T20:21:17.890Z,10.80
2023-03-12T20:23:45.850Z,17.03
2023-03-12T20:26:18.031Z,17.27
2023-03-12T20:28:47.599Z,11.43
2023-03-12T20:31:18.472Z,12.97
2023-03-12T20:33:47.998Z,14.03
2023-03-12T20:36:18.431Z,14.93
2023-03-12T20:38:51.278Z,12.77
2023-03-12T20:41:21.720Z,12.57
2023-03-12T20:43:49.594Z,14.30
2023-03-12T20:46:17.364Z,13.93
2023-03-12T20:48:45.189Z,14.00
2023-03-12T20:51:13.036Z,11.37
2023-03-12T20:53:41.040Z,11.93
2023-03-12T20:56:09.350Z,16.23
2023-03-12T20:58:38.493Z,13.10
2023-03-12T21:01:07.051Z,11.17
2023-03-12T21:03:35.260Z,16.83
2023-03-12T21:06:03.922Z,17.83
2023-03-12T21:08:32.823Z,14.47
2023-03-12T21:11:00.908Z,9.33
2023-03-12T21:13:30.526Z,15.27
2023-03-12T21:15:59.795Z,10.13
2023-03-12T21:18:29.013Z,12.33
2023-03-12T21:21:02.492Z,18.87
2023-03-12T21:23:30.543Z,16.40
2023-03-12T21:26:00.917Z,7.60
2023-03-12T21:28:29.142Z,15.87
2023-03-12T21:30:57.079Z,16.60
2023-03-12T21:33:26.327Z,11.53
2023-03-12T21:35:54.136Z,11.80
2023-03-12T21:38:22.143Z,11.00
2023-03-12T21:40:49.884Z,14.50
2023-03-12T21:43:17.736Z,18.83
2023-03-12T21:45:47.364Z,14.07
2023-03-12T21:48:15.343Z,9.90
2023-03-12T21:50:44.576Z,12.17
2023-03-12T21:53:23.166Z,16.00
2023-03-12T21:56:02.224Z,15.17
2023-03-12T21:58:31.896Z,13.93
2023-03-12T22:01:09.079Z,16.43
2023-03-12T22:03:37.553Z,22.93
2023-03-12T22:06:07.912Z,22.13
2023-03-12T22:08:36.439Z,14.30
2023-03-12T22:11:04.456Z,18.23
2023-03-12T22:13:32.518Z,22.60
2023-03-12T22:16:02.670Z,8.40
2023-03-12T22:18:31.458Z,18.13
2023-03-12T22:21:03.305Z,18.60
2023-03-12T22:23:32.968Z,16.17
2023-03-12T22:26:01.483Z,11.17
2023-03-12T22:28:29.377Z,15.00
2023-03-12T22:31:00.768Z,14.07
2023-03-12T22:33:29.242Z,13.57
2023-03-12T22:35:57.404Z,18.87
2023-03-12T22:38:25.311Z,19.50
2023-03-12T22:40:55.914Z,16.50
2023-03-12T22:43:25.900Z,18.77
2023-03-12T22:45:54.464Z,18.00
2023-03-12T22:48:22.505Z,15.10
2023-03-12T22:50:54.354Z,11.37
2023-03-12T22:53:22.355Z,16.57
2023-03-12T22:55:59.320Z,18.03
2023-03-12T22:58:27.313Z,9.40
2023-03-12T23:01:00.128Z,17.60
2023-03-12T23:03:28.543Z,12.47
2023-03-12T23:05:56.588Z,10.80
2023-03-12T23:08:24.917Z,16.40
2023-03-12T23:10:53.785Z,19.10
2023-03-12T23:13:23.584Z,11.63
2023-03-12T23:15:51.714Z,14.50
2023-03-12T23:18:20.715Z,11.73
2023-03-12T23:20:48.943Z,13.67
2023-03-12T23:23:16.777Z,14.43
2023-03-12T23:25:52.744Z,11.60
2023-03-12T23:28:21.933Z,7.90
2023-03-12T23:30:56.820Z,7.40
2023-03-12T23:33:24.582Z,8.70
2023-03-12T23:35:57.046Z,10.53
2023-03-12T23:38:25.798Z,7.50
2023-03-12T23:40:53.608Z,14.17
2023-03-12T23:43:22.829Z,9.37
2023-03-12T23:45:57.309Z,7.50
2023-03-12T23:48:25.453Z,7.77
2023-03-12T23:50:53.289Z,10.83
2023-03-12T23:53:21.832Z,9.03
2023-03-12T23:55:57.272Z,8.93
2023-03-12T23:58:27.050Z,8.60
